sensor_id;sensor_type;location;lat;lon;timestamp;pressure;altitude;pressure_sealevel;temperature;humidity
74649;BME280;63168;49.280;7.214;2023-01-19T00:01:00;97685.44;;;16.58;46.54
74649;BME280;63168;49.280;7.214;2023-01-19T00:03:25;97682.97;;;16.56;46.03
74649;BME280;63168;49.280;7.214;2023-01-19T00:05:51;97687.53;;;16.54;46.61
74649;BME280;63168;49.280;7.214;2023-01-19T00:08:16;97689.19;;;16.55;46.23
74649;BME280;63168;49.280;7.214;2023-01-19T00:10:44;97698.97;;;16.55;46.12
74649;BME280;63168;49.280;7.214;2023-01-19T00:13:10;97699.78;;;16.55;46.12
74649;BME280;63168;49.280;7.214;2023-01-19T00:15:37;97695.47;;;16.54;46.33
74649;BME280;63168;49.280;7.214;2023-01-19T00:18:02;97694.50;;;16.55;46.24
74649;BME280;63168;49.280;7.214;2023-01-19T00:20:28;97692.84;;;16.54;46.26
74649;BME280;63168;49.280;7.214;2023-01-19T00:22:56;97696.47;;;16.53;46.39
74649;BME280;63168;49.280;7.214;2023-01-19T00:25:21;97694.78;;;16.52;46.27
74649;BME280;63168;49.280;7.214;2023-01-19T00:27:47;97690.47;;;16.51;46.50
74649;BME280;63168;49.280;7.214;2023-01-19T00:30:13;97688.94;;;16.48;46.49
74649;BME280;63168;49.280;7.214;2023-01-19T00:32:40;97694.91;;;16.51;46.48
74649;BME280;63168;49.280;7.214;2023-01-19T00:35:06;97698.41;;;16.51;46.43
74649;BME280;63168;49.280;7.214;2023-01-19T00:37:32;97701.19;;;16.49;46.56
74649;BME280;63168;49.280;7.214;2023-01-19T00:39:57;97696.88;;;16.48;46.53
74649;BME280;63168;49.280;7.214;2023-01-19T00:42:23;97706.63;;;16.48;46.57
74649;BME280;63168;49.280;7.214;2023-01-19T00:45:08;97708.31;;;16.49;46.23
74649;BME280;63168;49.280;7.214;2023-01-19T00:47:34;97710.97;;;16.49;46.48
74649;BME280;63168;49.280;7.214;2023-01-19T00:50:01;97713.75;;;16.47;46.47
74649;BME280;63168;49.280;7.214;2023-01-19T00:52:26;97718.19;;;16.47;46.31
74649;BME280;63168;49.280;7.214;2023-01-19T00:54:52;97717.22;;;16.48;46.13
74649;BME280;63168;49.280;7.214;2023-01-19T00:57:17;97716.53;;;16.46;46.20
74649;BME280;63168;49.280;7.214;2023-01-19T00:59:43;97716.53;;;16.46;46.52
74649;BME280;63168;49.280;7.214;2023-01-19T01:02:08;97714.84;;;16.45;46.14
74649;BME280;63168;49.280;7.214;2023-01-19T01:04:35;97714.03;;;16.44;46.62
74649;BME280;63168;49.280;7.214;2023-01-19T01:07:02;97713.03;;;16.45;46.33
74649;BME280;63168;49.280;7.214;2023-01-19T01:09:28;97718.34;;;16.45;46.10
74649;BME280;63168;49.280;7.214;2023-01-19T01:11:54;97720.13;;;16.45;46.30
74649;BME280;63168;49.280;7.214;2023-01-19T01:14:19;97719.31;;;16.44;46.26
74649;BME280;63168;49.280;7.214;2023-01-19T01:16:45;97724.75;;;16.43;46.09
74649;BME280;63168;49.280;7.214;2023-01-19T01:19:10;97729.06;;;16.44;46.15
74649;BME280;63168;49.280;7.214;2023-01-19T01:21:36;97729.19;;;16.42;46.43
74649;BME280;63168;49.280;7.214;2023-01-19T01:24:03;97726.56;;;16.42;46.21
74649;BME280;63168;49.280;7.214;2023-01-19T01:26:28;97738.97;;;16.42;46.28
74649;BME280;63168;49.280;7.214;2023-01-19T01:28:54;97732.69;;;16.43;46.22
74649;BME280;63168;49.280;7.214;2023-01-19T01:31:19;97731.84;;;16.42;46.08
74649;BME280;63168;49.280;7.214;2023-01-19T01:33:45;97732.69;;;16.43;46.49
74649;BME280;63168;49.280;7.214;2023-01-19T01:36:10;97735.34;;;16.43;46.29
74649;BME280;63168;49.280;7.214;2023-01-19T01:38:36;97735.47;;;16.41;46.17
74649;BME280;63168;49.280;7.214;2023-01-19T01:41:03;97740.06;;;16.39;46.12
74649;BME280;63168;49.280;7.214;2023-01-19T01:43:41;97750.78;;;16.38;46.35
74649;BME280;63168;49.280;7.214;2023-01-19T01:46:07;97749.81;;;16.39;46.36
74649;BME280;63168;49.280;7.214;2023-01-19T01:48:33;97742.84;;;16.38;46.67
74649;BME280;63168;49.280;7.214;2023-01-19T01:51:03;97744.41;;;16.40;46.03
74649;BME280;63168;49.280;7.214;2023-01-19T01:53:54;97743.53;;;16.40;46.19
74649;BME280;63168;49.280;7.214;2023-01-19T01:56:23;97747.19;;;16.39;46.33
74649;BME280;63168;49.280;7.214;2023-01-19T01:58:50;97743.69;;;16.38;46.13
74649;BME280;63168;49.280;7.214;2023-01-19T02:01:15;97755.13;;;16.39;46.12
74649;BME280;63168;49.280;7.214;2023-01-19T02:04:00;97757.06;;;16.36;46.35
74649;BME280;63168;49.280;7.214;2023-01-19T02:06:25;97753.59;;;16.36;46.23
74649;BME280;63168;49.280;7.214;2023-01-19T02:08:53;97752.75;;;16.35;46.73
74649;BME280;63168;49.280;7.214;2023-01-19T02:11:40;97747.44;;;16.35;46.46
74649;BME280;63168;49.280;7.214;2023-01-19T02:14:24;97754.53;;;16.35;46.14
74649;BME280;63168;49.280;7.214;2023-01-19T02:16:50;97755.53;;;16.34;46.19
74649;BME280;63168;49.280;7.214;2023-01-19T02:19:18;97751.09;;;16.34;46.58
74649;BME280;63168;49.280;7.214;2023-01-19T02:21:51;97748.56;;;16.33;46.41
74649;BME280;63168;49.280;7.214;2023-01-19T02:24:20;97751.34;;;16.31;46.40
74649;BME280;63168;49.280;7.214;2023-01-19T02:26:46;97751.09;;;16.34;46.22
74649;BME280;63168;49.280;7.214;2023-01-19T02:29:15;97754.69;;;16.33;46.46
74649;BME280;63168;49.280;7.214;2023-01-19T02:31:42;97758.19;;;16.34;46.14
74649;BME280;63168;49.280;7.214;2023-01-19T02:34:09;97752.16;;;16.32;46.05
74649;BME280;63168;49.280;7.214;2023-01-19T02:36:38;97756.66;;;16.31;46.42
74649;BME280;63168;49.280;7.214;2023-01-19T02:39:05;97760.28;;;16.30;46.50
74649;BME280;63168;49.280;7.214;2023-01-19T02:41:38;97760.09;;;16.32;46.69
74649;BME280;63168;49.280;7.214;2023-01-19T02:44:05;97758.31;;;16.32;46.29
74649;BME280;63168;49.280;7.214;2023-01-19T02:46:32;97756.50;;;16.33;46.49
74649;BME280;63168;49.280;7.214;2023-01-19T02:48:57;97753.88;;;16.33;46.29
74649;BME280;63168;49.280;7.214;2023-01-19T02:51:23;97756.66;;;16.31;46.18
74649;BME280;63168;49.280;7.214;2023-01-19T02:54:25;97750.50;;;16.31;46.20
74649;BME280;63168;49.280;7.214;2023-01-19T02:57:03;97754.97;;;16.30;46.42
74649;BME280;63168;49.280;7.214;2023-01-19T02:59:47;97751.63;;;16.28;46.48
74649;BME280;63168;49.280;7.214;2023-01-19T03:02:22;97755.81;;;16.31;46.40
74649;BME280;63168;49.280;7.214;2023-01-19T03:04:58;97760.28;;;16.30;46.05
74649;BME280;63168;49.280;7.214;2023-01-19T03:07:31;97747.06;;;16.30;46.06
74649;BME280;63168;49.280;7.214;2023-01-19T03:10:04;97758.59;;;16.29;46.03
74649;BME280;63168;49.280;7.214;2023-01-19T03:12:39;97762.22;;;16.28;46.35
74649;BME280;63168;49.280;7.214;2023-01-19T03:15:10;97764.72;;;16.30;46.21
74649;BME280;63168;49.280;7.214;2023-01-19T03:17:37;97769.16;;;16.29;46.25
74649;BME280;63168;49.280;7.214;2023-01-19T03:20:04;97773.78;;;16.27;45.99
74649;BME280;63168;49.280;7.214;2023-01-19T03:22:31;97770.28;;;16.27;46.16
74649;BME280;63168;49.280;7.214;2023-01-19T03:24:58;97765.13;;;16.25;46.19
74649;BME280;63168;49.280;7.214;2023-01-19T03:27:28;97765.84;;;16.27;46.20
74649;BME280;63168;49.280;7.214;2023-01-19T03:29:58;97772.94;;;16.27;46.50
74649;BME280;63168;49.280;7.214;2023-01-19T03:32:28;97763.47;;;16.24;46.33
74649;BME280;63168;49.280;7.214;2023-01-19T03:34:58;97773.06;;;16.25;46.14
74649;BME280;63168;49.280;7.214;2023-01-19T03:37:26;97765.97;;;16.26;45.99
74649;BME280;63168;49.280;7.214;2023-01-19T03:39:54;97765.00;;;16.27;46.46
74649;BME280;63168;49.280;7.214;2023-01-19T03:42:21;97761.38;;;16.28;46.15
74649;BME280;63168;49.280;7.214;2023-01-19T03:44:49;97765.84;;;16.27;46.34
74649;BME280;63168;49.280;7.214;2023-01-19T03:47:18;97765.25;;;16.23;46.25
74649;BME280;63168;49.280;7.214;2023-01-19T03:49:46;97774.03;;;16.24;46.42
74649;BME280;63168;49.280;7.214;2023-01-19T03:52:12;97759.97;;;16.23;46.15
74649;BME280;63168;49.280;7.214;2023-01-19T03:54:38;97759.16;;;16.23;46.22
74649;BME280;63168;49.280;7.214;2023-01-19T03:57:05;97760.97;;;16.22;46.38
74649;BME280;63168;49.280;7.214;2023-01-19T03:59:30;97766.94;;;16.25;46.05
74649;BME280;63168;49.280;7.214;2023-01-19T04:01:55;97764.44;;;16.23;46.48
74649;BME280;63168;49.280;7.214;2023-01-19T04:04:22;97767.22;;;16.21;46.27
74649;BME280;63168;49.280;7.214;2023-01-19T04:06:49;97757.47;;;16.22;46.25
74649;BME280;63168;49.280;7.214;2023-01-19T04:09:15;97761.09;;;16.21;46.08
74649;BME280;63168;49.280;7.214;2023-01-19T04:11:40;97770.56;;;16.23;46.53
74649;BME280;63168;49.280;7.214;2023-01-19T04:14:05;97761.94;;;16.21;46.38
74649;BME280;63168;49.280;7.214;2023-01-19T04:16:31;97758.59;;;16.19;46.26
74649;BME280;63168;49.280;7.214;2023-01-19T04:18:56;97760.25;;;16.20;46.36
74649;BME280;63168;49.280;7.214;2023-01-19T04:21:23;97758.59;;;16.19;46.11
74649;BME280;63168;49.280;7.214;2023-01-19T04:23:49;97758.44;;;16.21;46.01
74649;BME280;63168;49.280;7.214;2023-01-19T04:26:14;97762.06;;;16.20;46.54
74649;BME280;63168;49.280;7.214;2023-01-19T04:28:40;97759.44;;;16.20;46.43
74649;BME280;63168;49.280;7.214;2023-01-19T04:31:06;97751.50;;;16.20;46.36
74649;BME280;63168;49.280;7.214;2023-01-19T04:33:32;97755.81;;;16.21;46.35
74649;BME280;63168;49.280;7.214;2023-01-19T04:35:58;97746.22;;;16.20;46.33
74649;BME280;63168;49.280;7.214;2023-01-19T04:38:24;97752.44;;;16.19;46.49
74649;BME280;63168;49.280;7.214;2023-01-19T04:40:51;97764.84;;;16.18;46.64
74649;BME280;63168;49.280;7.214;2023-01-19T04:43:17;97751.63;;;16.18;46.41
74649;BME280;63168;49.280;7.214;2023-01-19T04:45:43;97763.19;;;16.17;46.37
74649;BME280;63168;49.280;7.214;2023-01-19T04:48:09;97769.31;;;16.18;46.35
74649;BME280;63168;49.280;7.214;2023-01-19T04:50:35;97765.84;;;16.17;46.17
74649;BME280;63168;49.280;7.214;2023-01-19T04:53:00;97771.13;;;16.17;46.41
74649;BME280;63168;49.280;7.214;2023-01-19T04:55:27;97771.94;;;16.18;46.17
74649;BME280;63168;49.280;7.214;2023-01-19T04:57:53;97772.94;;;16.17;46.50
74649;BME280;63168;49.280;7.214;2023-01-19T05:00:18;97772.78;;;16.18;46.14
74649;BME280;63168;49.280;7.214;2023-01-19T05:02:45;97776.41;;;16.17;46.08
74649;BME280;63168;49.280;7.214;2023-01-19T05:05:10;97775.56;;;16.17;46.45
74649;BME280;63168;49.280;7.214;2023-01-19T05:07:36;97774.72;;;16.16;46.53
74649;BME280;63168;49.280;7.214;2023-01-19T05:10:02;97773.91;;;16.16;46.52
74649;BME280;63168;49.280;7.214;2023-01-19T05:12:28;97776.56;;;16.16;46.20
74649;BME280;63168;49.280;7.214;2023-01-19T05:14:54;97776.69;;;16.14;46.30
74649;BME280;63168;49.280;7.214;2023-01-19T05:17:19;97783.66;;;16.15;46.09
74649;BME280;63168;49.280;7.214;2023-01-19T05:19:45;97781.84;;;16.16;46.28
74649;BME280;63168;49.280;7.214;2023-01-19T05:22:12;97778.34;;;16.15;46.38
74649;BME280;63168;49.280;7.214;2023-01-19T05:24:38;97777.50;;;16.15;46.27
74649;BME280;63168;49.280;7.214;2023-01-19T05:27:03;97783.78;;;16.14;46.21
74649;BME280;63168;49.280;7.214;2023-01-19T05:29:30;97783.78;;;16.14;46.07
74649;BME280;63168;49.280;7.214;2023-01-19T05:31:55;97786.41;;;16.14;46.14
74649;BME280;63168;49.280;7.214;2023-01-19T05:34:21;97782.78;;;16.15;46.29
74649;BME280;63168;49.280;7.214;2023-01-19T05:36:46;97778.63;;;16.12;46.45
74649;BME280;63168;49.280;7.214;2023-01-19T05:39:11;97783.63;;;16.45;48.64
74649;BME280;63168;49.280;7.214;2023-01-19T05:41:37;97774.44;;;16.79;47.64
74649;BME280;63168;49.280;7.214;2023-01-19T05:44:02;97773.19;;;16.73;47.08
74649;BME280;63168;49.280;7.214;2023-01-19T05:46:29;97777.38;;;16.66;47.02
74649;BME280;63168;49.280;7.214;2023-01-19T05:48:55;97775.72;;;16.55;46.98
74649;BME280;63168;49.280;7.214;2023-01-19T05:51:20;97775.16;;;16.51;46.73
74649;BME280;63168;49.280;7.214;2023-01-19T05:53:46;97781.00;;;16.45;47.00
74649;BME280;63168;49.280;7.214;2023-01-19T05:56:11;97782.25;;;16.41;46.86
74649;BME280;63168;49.280;7.214;2023-01-19T05:58:37;97781.44;;;16.40;46.91
74649;BME280;63168;49.280;7.214;2023-01-19T06:01:07;97784.22;;;16.39;46.60
74649;BME280;63168;49.280;7.214;2023-01-19T06:03:35;97783.38;;;16.38;46.61
74649;BME280;63168;49.280;7.214;2023-01-19T06:06:01;97784.34;;;16.37;46.64
74649;BME280;63168;49.280;7.214;2023-01-19T06:08:27;97791.31;;;16.38;46.76
74649;BME280;63168;49.280;7.214;2023-01-19T06:10:52;97790.47;;;16.38;46.60
74649;BME280;63168;49.280;7.214;2023-01-19T06:13:17;97793.09;;;16.38;46.66
74649;BME280;63168;49.280;7.214;2023-01-19T06:15:43;97788.13;;;16.34;46.92
74649;BME280;63168;49.280;7.214;2023-01-19T06:18:09;97785.63;;;16.33;46.68
74649;BME280;63168;49.280;7.214;2023-01-19T06:20:36;97786.44;;;16.33;46.84
74649;BME280;63168;49.280;7.214;2023-01-19T06:23:01;97804.69;;;16.36;46.50
74649;BME280;63168;49.280;7.214;2023-01-19T06:25:27;97803.00;;;16.35;46.69
74649;BME280;63168;49.280;7.214;2023-01-19T06:27:53;97807.31;;;16.36;46.82
74649;BME280;63168;49.280;7.214;2023-01-19T06:30:19;97807.31;;;16.36;46.72
74649;BME280;63168;49.280;7.214;2023-01-19T06:32:44;97813.59;;;16.35;46.62
74649;BME280;63168;49.280;7.214;2023-01-19T06:35:09;97819.03;;;16.34;46.37
74649;BME280;63168;49.280;7.214;2023-01-19T06:37:37;97818.19;;;16.33;46.72
74649;BME280;63168;49.280;7.214;2023-01-19T06:40:03;97824.44;;;16.32;46.45
74649;BME280;63168;49.280;7.214;2023-01-19T06:42:29;97820.00;;;16.33;46.56
74649;BME280;63168;49.280;7.214;2023-01-19T06:44:54;97831.25;;;16.35;46.61
74649;BME280;63168;49.280;7.214;2023-01-19T06:47:20;97837.41;;;16.35;46.53
74649;BME280;63168;49.280;7.214;2023-01-19T06:49:45;97835.75;;;16.34;46.52
74649;BME280;63168;49.280;7.214;2023-01-19T06:52:12;97832.38;;;16.32;46.68
74649;BME280;63168;49.280;7.214;2023-01-19T06:54:43;97837.69;;;16.32;46.48
74649;BME280;63168;49.280;7.214;2023-01-19T06:57:09;97842.97;;;16.32;46.65
74649;BME280;63168;49.280;7.214;2023-01-19T06:59:36;97843.09;;;16.31;46.36
74649;BME280;63168;49.280;7.214;2023-01-19T07:02:01;97854.41;;;16.33;46.77
74649;BME280;63168;49.280;7.214;2023-01-19T07:04:27;97853.56;;;16.32;46.64
74649;BME280;63168;49.280;7.214;2023-01-19T07:06:52;97858.84;;;16.32;46.71
74649;BME280;63168;49.280;7.214;2023-01-19T07:09:17;97851.75;;;16.33;46.57
74649;BME280;63168;49.280;7.214;2023-01-19T07:11:46;97856.19;;;16.32;46.68
74649;BME280;63168;49.280;7.214;2023-01-19T07:14:12;97854.53;;;16.31;46.61
74649;BME280;63168;49.280;7.214;2023-01-19T07:16:37;97857.72;;;16.35;46.24
74649;BME280;63168;49.280;7.214;2023-01-19T07:19:03;97856.06;;;16.34;46.60
74649;BME280;63168;49.280;7.214;2023-01-19T07:21:28;97858.72;;;16.34;46.49
74649;BME280;63168;49.280;7.214;2023-01-19T07:23:54;97864.84;;;16.34;46.46
74649;BME280;63168;49.280;7.214;2023-01-19T07:26:20;97868.44;;;16.33;46.78
74649;BME280;63168;49.280;7.214;2023-01-19T07:28:47;97871.09;;;16.33;46.70
74649;BME280;63168;49.280;7.214;2023-01-19T07:31:13;97878.22;;;16.33;46.76
74649;BME280;63168;49.280;7.214;2023-01-19T07:33:39;97876.50;;;16.32;46.71
74649;BME280;63168;49.280;7.214;2023-01-19T07:36:05;97879.16;;;16.32;46.41
74649;BME280;63168;49.280;7.214;2023-01-19T07:38:31;97878.34;;;16.31;46.33
74649;BME280;63168;49.280;7.214;2023-01-19T07:40:59;97884.44;;;16.32;46.76
74649;BME280;63168;49.280;7.214;2023-01-19T07:43:25;97890.84;;;16.29;46.60
74649;BME280;63168;49.280;7.214;2023-01-19T07:45:54;97890.72;;;16.31;46.46
74649;BME280;63168;49.280;7.214;2023-01-19T07:48:20;97889.75;;;16.32;46.55
74649;BME280;63168;49.280;7.214;2023-01-19T07:50:45;97896.00;;;16.31;46.43
74649;BME280;63168;49.280;7.214;2023-01-19T07:53:11;97898.66;;;16.31;46.46
74649;BME280;63168;49.280;7.214;2023-01-19T07:55:36;97898.66;;;16.31;46.43
74649;BME280;63168;49.280;7.214;2023-01-19T07:58:02;97892.56;;;16.30;46.43
74649;BME280;63168;49.280;7.214;2023-01-19T08:00:31;97899.63;;;16.30;46.33
74649;BME280;63168;49.280;7.214;2023-01-19T08:03:00;97903.13;;;16.30;46.49
74649;BME280;63168;49.280;7.214;2023-01-19T08:05:26;97911.06;;;16.30;46.66
74649;BME280;63168;49.280;7.214;2023-01-19T08:07:53;97909.25;;;16.31;46.36
74649;BME280;63168;49.280;7.214;2023-01-19T08:10:20;97910.78;;;16.33;46.71
74649;BME280;63168;49.280;7.214;2023-01-19T08:12:49;97912.59;;;16.33;46.72
74649;BME280;63168;49.280;7.214;2023-01-19T08:15:14;97914.41;;;16.32;46.59
74649;BME280;63168;49.280;7.214;2023-01-19T08:17:40;97908.25;;;16.32;46.53
74649;BME280;63168;49.280;7.214;2023-01-19T08:20:08;97915.38;;;16.31;46.55
74649;BME280;63168;49.280;7.214;2023-01-19T08:22:33;97908.44;;;16.30;46.76
74649;BME280;63168;49.280;7.214;2023-01-19T08:24:58;97910.22;;;16.30;46.80
74649;BME280;63168;49.280;7.214;2023-01-19T08:27:24;97912.72;;;16.31;46.56
74649;BME280;63168;49.280;7.214;2023-01-19T08:29:50;97913.72;;;16.30;46.74
74649;BME280;63168;49.280;7.214;2023-01-19T08:32:15;97919.00;;;16.30;46.51
74649;BME280;63168;49.280;7.214;2023-01-19T08:34:41;97918.03;;;16.31;46.80
74649;BME280;63168;49.280;7.214;2023-01-19T08:37:07;97921.34;;;16.33;46.75
74649;BME280;63168;49.280;7.214;2023-01-19T08:39:33;97917.91;;;16.33;46.78
74649;BME280;63168;49.280;7.214;2023-01-19T08:41:58;97915.38;;;16.31;46.49
74649;BME280;63168;49.280;7.214;2023-01-19T08:44:25;97916.38;;;16.30;46.54
74649;BME280;63168;49.280;7.214;2023-01-19T08:46:50;97919.00;;;16.30;46.56
74649;BME280;63168;49.280;7.214;2023-01-19T08:49:16;97921.66;;;16.30;46.65
74649;BME280;63168;49.280;7.214;2023-01-19T08:51:41;97920.66;;;16.31;46.80
74649;BME280;63168;49.280;7.214;2023-01-19T08:54:11;97923.19;;;16.33;46.63
74649;BME280;63168;49.280;7.214;2023-01-19T08:56:37;97912.72;;;16.31;46.62
74649;BME280;63168;49.280;7.214;2023-01-19T08:59:02;97924.97;;;16.32;46.38
74649;BME280;63168;49.280;7.214;2023-01-19T09:01:28;97923.19;;;16.33;46.64
74649;BME280;63168;49.280;7.214;2023-01-19T09:03:53;97928.47;;;16.33;46.75
74649;BME280;63168;49.280;7.214;2023-01-19T09:06:18;97930.13;;;16.34;46.76
74649;BME280;63168;49.280;7.214;2023-01-19T09:08:44;97924.84;;;16.34;46.84
74649;BME280;63168;49.280;7.214;2023-01-19T09:11:13;97931.00;;;16.34;46.86
74649;BME280;63168;49.280;7.214;2023-01-19T09:13:39;97930.00;;;16.35;46.57
74649;BME280;63168;49.280;7.214;2023-01-19T09:16:06;97924.97;;;16.32;46.83
74649;BME280;63168;49.280;7.214;2023-01-19T09:18:32;97919.69;;;16.32;46.82
74649;BME280;63168;49.280;7.214;2023-01-19T09:20:59;97936.28;;;16.34;46.39
74649;BME280;63168;49.280;7.214;2023-01-19T09:23:25;97929.28;;;16.33;46.37
74649;BME280;63168;49.280;7.214;2023-01-19T09:25:55;97931.00;;;16.34;46.43
74649;BME280;63168;49.280;7.214;2023-01-19T09:28:22;97932.91;;;16.32;46.60
74649;BME280;63168;49.280;7.214;2023-01-19T09:30:48;97932.06;;;16.32;46.60
74649;BME280;63168;49.280;7.214;2023-01-19T09:33:14;97937.22;;;16.33;46.94
74649;BME280;63168;49.280;7.214;2023-01-19T09:35:41;97939.06;;;16.33;46.64
74649;BME280;63168;49.280;7.214;2023-01-19T09:38:08;97942.38;;;16.35;46.61
74649;BME280;63168;49.280;7.214;2023-01-19T09:40:35;97938.22;;;16.32;46.87
74649;BME280;63168;49.280;7.214;2023-01-19T09:43:11;97948.78;;;16.32;46.67
74649;BME280;63168;49.280;7.214;2023-01-19T09:45:43;97946.88;;;16.34;46.53
74649;BME280;63168;49.280;7.214;2023-01-19T09:48:22;97946.88;;;16.34;46.78
74649;BME280;63168;49.280;7.214;2023-01-19T09:50:50;97944.34;;;16.33;46.55
74649;BME280;63168;49.280;7.214;2023-01-19T09:53:22;97948.78;;;16.32;46.78
74649;BME280;63168;49.280;7.214;2023-01-19T09:55:51;97950.47;;;16.33;46.46
74649;BME280;63168;49.280;7.214;2023-01-19T09:58:17;97945.16;;;16.33;46.63
74649;BME280;63168;49.280;7.214;2023-01-19T10:00:48;97956.59;;;16.34;46.45
74649;BME280;63168;49.280;7.214;2023-01-19T10:03:16;97947.81;;;16.33;46.49
74649;BME280;63168;49.280;7.214;2023-01-19T10:05:47;97958.25;;;16.35;46.88
74649;BME280;63168;49.280;7.214;2023-01-19T10:08:18;97960.91;;;16.35;46.66
74649;BME280;63168;49.280;7.214;2023-01-19T10:10:51;97966.34;;;16.33;46.54
74649;BME280;63168;49.280;7.214;2023-01-19T10:13:24;97958.13;;;16.36;46.84
74649;BME280;63168;49.280;7.214;2023-01-19T10:15:59;97962.75;;;16.34;46.45
74649;BME280;63168;49.280;7.214;2023-01-19T10:18:28;97971.38;;;16.36;46.82
74649;BME280;63168;49.280;7.214;2023-01-19T10:21:03;97965.25;;;16.36;46.52
74649;BME280;63168;49.280;7.214;2023-01-19T10:23:40;97966.06;;;16.36;46.43
74649;BME280;63168;49.280;7.214;2023-01-19T10:26:09;97968.03;;;16.34;46.97
74649;BME280;63168;49.280;7.214;2023-01-19T10:28:38;97966.06;;;16.36;46.69
74649;BME280;63168;49.280;7.214;2023-01-19T10:31:06;97971.50;;;16.35;46.88
74649;BME280;63168;49.280;7.214;2023-01-19T10:33:34;97968.03;;;16.34;46.55
74649;BME280;63168;49.280;7.214;2023-01-19T10:36:03;97969.28;;;16.40;46.49
74649;BME280;63168;49.280;7.214;2023-01-19T10:38:28;97961.22;;;16.42;46.48
74649;BME280;63168;49.280;7.214;2023-01-19T10:41:00;97967.47;;;16.41;46.34
74649;BME280;63168;49.280;7.214;2023-01-19T10:43:36;97969.94;;;16.83;47.98
74649;BME280;63168;49.280;7.214;2023-01-19T10:46:06;97969.81;;;16.85;47.06
74649;BME280;63168;49.280;7.214;2023-01-19T10:48:37;97968.09;;;16.74;46.78
74649;BME280;63168;49.280;7.214;2023-01-19T10:51:04;97969.63;;;16.67;47.13
74649;BME280;63168;49.280;7.214;2023-01-19T10:53:30;97970.88;;;16.63;46.85
74649;BME280;63168;49.280;7.214;2023-01-19T10:56:10;97970.59;;;16.56;46.78
74649;BME280;63168;49.280;7.214;2023-01-19T10:58:36;97961.13;;;16.53;47.30
74649;BME280;63168;49.280;7.214;2023-01-19T11:01:15;97966.41;;;16.53;46.83
74649;BME280;63168;49.280;7.214;2023-01-19T11:03:42;97960.13;;;16.54;47.14
74649;BME280;63168;49.280;7.214;2023-01-19T11:06:26;97957.75;;;16.51;47.26
74649;BME280;63168;49.280;7.214;2023-01-19T11:08:53;97961.66;;;16.47;47.25
74649;BME280;63168;49.280;7.214;2023-01-19T11:11:40;97954.09;;;16.42;46.88
74649;BME280;63168;49.280;7.214;2023-01-19T11:14:09;97954.25;;;16.41;47.11
74649;BME280;63168;49.280;7.214;2023-01-19T11:16:37;97956.06;;;16.40;47.32
74649;BME280;63168;49.280;7.214;2023-01-19T11:19:04;97958.84;;;16.39;47.05
74649;BME280;63168;49.280;7.214;2023-01-19T11:21:32;97954.50;;;16.38;47.33
74649;BME280;63168;49.280;7.214;2023-01-19T11:23:58;97953.69;;;16.37;47.20
74649;BME280;63168;49.280;7.214;2023-01-19T11:26:26;97949.38;;;16.36;47.21
74649;BME280;63168;49.280;7.214;2023-01-19T11:28:54;97944.09;;;16.36;47.05
74649;BME280;63168;49.280;7.214;2023-01-19T11:31:30;97950.31;;;16.35;47.27
74649;BME280;63168;49.280;7.214;2023-01-19T11:33:59;97951.19;;;16.35;46.95
74649;BME280;63168;49.280;7.214;2023-01-19T11:36:26;97944.91;;;16.36;46.89
74649;BME280;63168;49.280;7.214;2023-01-19T11:38:53;97938.78;;;16.36;47.05
74649;BME280;63168;49.280;7.214;2023-01-19T11:41:22;97943.25;;;16.35;47.18
74649;BME280;63168;49.280;7.214;2023-01-19T11:43:52;97935.31;;;16.35;47.14
74649;BME280;63168;49.280;7.214;2023-01-19T11:46:20;97939.88;;;16.33;47.01
74649;BME280;63168;49.280;7.214;2023-01-19T11:48:49;97934.59;;;16.33;47.24
74649;BME280;63168;49.280;7.214;2023-01-19T11:51:24;97919.56;;;16.34;46.93
74649;BME280;63168;49.280;7.214;2023-01-19T11:53:52;97920.28;;;16.36;46.85
74649;BME280;63168;49.280;7.214;2023-01-19T11:56:21;97918.44;;;16.36;47.05
74649;BME280;63168;49.280;7.214;2023-01-19T11:58:48;97933.53;;;16.46;47.03
74649;BME280;63168;49.280;7.214;2023-01-19T12:01:19;97931.63;;;16.78;48.05
74649;BME280;63168;49.280;7.214;2023-01-19T12:03:50;97926.44;;;16.96;47.62
74649;BME280;63168;49.280;7.214;2023-01-19T12:06:18;97924.25;;;17.01;47.28
74649;BME280;63168;49.280;7.214;2023-01-19T12:08:48;97923.94;;;17.04;46.68
74649;BME280;63168;49.280;7.214;2023-01-19T12:11:19;97925.63;;;17.05;46.55
74649;BME280;63168;49.280;7.214;2023-01-19T12:13:47;97924.69;;;17.06;46.86
74649;BME280;63168;49.280;7.214;2023-01-19T12:16:19;97930.66;;;17.08;46.54
74649;BME280;63168;49.280;7.214;2023-01-19T12:18:47;97935.25;;;17.16;46.34
74649;BME280;63168;49.280;7.214;2023-01-19T12:21:14;97929.41;;;17.12;46.47
74649;BME280;63168;49.280;7.214;2023-01-19T12:23:47;97933.88;;;17.12;46.24
74649;BME280;63168;49.280;7.214;2023-01-19T12:26:24;97933.88;;;17.12;46.44
74649;BME280;63168;49.280;7.214;2023-01-19T12:28:54;97930.25;;;17.13;46.22
74649;BME280;63168;49.280;7.214;2023-01-19T12:31:22;97931.34;;;17.10;46.15
74649;BME280;63168;49.280;7.214;2023-01-19T12:33:47;97921.16;;;17.16;46.79
74649;BME280;63168;49.280;7.214;2023-01-19T12:36:35;97933.31;;;17.18;46.10
74649;BME280;63168;49.280;7.214;2023-01-19T12:39:03;97914.66;;;18.80;52.26
74649;BME280;63168;49.280;7.214;2023-01-19T12:41:32;97909.25;;;19.79;50.34
74649;BME280;63168;49.280;7.214;2023-01-19T12:44:23;97908.81;;;19.92;48.25
74649;BME280;63168;49.280;7.214;2023-01-19T12:46:51;97904.53;;;19.65;48.35
74649;BME280;63168;49.280;7.214;2023-01-19T12:49:26;97904.91;;;19.25;45.79
74649;BME280;63168;49.280;7.214;2023-01-19T12:51:54;97899.47;;;18.90;45.49
74649;BME280;63168;49.280;7.214;2023-01-19T12:54:39;97900.69;;;18.60;44.70
74649;BME280;63168;49.280;7.214;2023-01-19T12:57:13;97900.94;;;18.38;44.75
74649;BME280;63168;49.280;7.214;2023-01-19T12:59:42;97904.56;;;18.19;45.21
74649;BME280;63168;49.280;7.214;2023-01-19T13:02:29;97897.38;;;18.01;45.34
74649;BME280;63168;49.280;7.214;2023-01-19T13:05:12;97895.19;;;17.87;45.25